WetterOnline ( http://www.wetteronline.de )

Wetter aktuell Schmölln

Aktuelles Wetter: Gera/Leumnitz (311m)

6-stündlich | Neueste Meldungen
Ortszeit Temperatur Wetter
Mi, 29.03. 14:00 15.6° C wolkig
Mi, 29.03. 8:00 9.5° C wolkig
Mi, 29.03. 2:00 10.4° C wolkig
Di, 28.03. 20:00 13.5° C leicht bewölkt
Ortszeit Temperatur Wetter
Mi, 29.03. 17:00 15.9° C bewölkt
Mi, 29.03. 16:30 15.7° C bedeckt
Mi, 29.03. 16:00 15.4° C bedeckt
Mi, 29.03. 15:30 15.6° C bedeckt
Mi, 29.03. 15:00 15.3° C bedeckt
Mi, 29.03. 14:30 15.6° C bedeckt
Ortszeit Relative Feuchte Sichtweite
Mi, 29.03. 14:00 55% 20 km
Mi, 29.03. 8:00 74% 25 km
Mi, 29.03. 2:00 66% 40 km
Di, 28.03. 20:00 48% 55 km
Ortszeit Relative Feuchte Sichtweite
Mi, 29.03. 17:00 53% 35 km
Mi, 29.03. 16:30 53% 55 km
Mi, 29.03. 16:00 52% 35 km
Mi, 29.03. 15:30 54% 40 km
Mi, 29.03. 15:00 53% 30 km
Mi, 29.03. 14:30 52% 15 km
Ortszeit Niederschlagsmenge Niederschlagsart
Mi, 29.03. 14:00 0,0 l/m2 in 6 Std. -
Mi, 29.03. 8:00 0,0 l/m2 in 12 Std. -
Mi, 29.03. 2:00 0,0 l/m2 in 6 Std. -
Di, 28.03. 20:00 0,0 l/m2 in 12 Std. -
Ortszeit Niederschlagsmenge Niederschlagsart
Mi, 29.03. 17:00 0,0 l/m2 in 1 Std. -
Mi, 29.03. 16:30 keine Meldung -
Mi, 29.03. 16:00 0,0 l/m2 in 1 Std. -
Mi, 29.03. 15:30 keine Meldung -
Mi, 29.03. 15:00 0,0 l/m2 in 1 Std. -
Mi, 29.03. 14:30 keine Meldung -
Ortszeit Stärke Spitze Richtung
km/h Bft. km/h Grad Sektor
Mi, 29.03. 14:00 24 4 50 290° W
Mi, 29.03. 8:00 14 3 22 260° W
Mi, 29.03. 2:00 11 2 20 250° W
Di, 28.03. 20:00 13 3 17 210° SW
Ortszeit Stärke Spitze Richtung
km/h Bft. km/h Grad Sektor
Mi, 29.03. 17:00 22 4 43 280° W
Mi, 29.03. 16:30 24 4 37 270° W
Mi, 29.03. 16:00 22 4 40 270° W
Mi, 29.03. 15:30 18 3 40 270° W
Mi, 29.03. 15:00 26 4 44 270° W
Mi, 29.03. 14:30 26 4 44 280° W
Ortszeit Untergrenze Bedeckung Gattung
total tief tief mittel hoch
Mi, 29.03. 14:00 1440 m 8/8 3/8 - - -
Mi, 29.03. 8:00 2400 m 6/8 6/8 - - -
Mi, 29.03. 2:00 1800 m 5/8 5/8 - - -
Di, 28.03. 20:00 9000 m 5/8 0/8 - - -
Ortszeit Bedeckungsgrad in Achtel und Wolkenuntergrenze
Mi, 29.03. 17:00 4(1500m) 7(2100m) 8(3900m)
Mi, 29.03. 16:30 7(1500m) 8(2100m)
Mi, 29.03. 16:00 8(1500m)
Mi, 29.03. 15:30 8(1500m)
Mi, 29.03. 15:00 5(1500m) 8(1500m)
Mi, 29.03. 14:30 2(1470m) 8(1800m) 8(2700m)
Ortszeit Luftdruck NN (hPa) Tendenz (hPa in 3 Std.)
Mi, 29.03. 14:00 1023 - 0,6
Mi, 29.03. 8:00 1024 + 1,1
Mi, 29.03. 2:00 1023 + 0,9
Di, 28.03. 20:00 1021 + 0,2
Ortszeit Luftdruck NN (hPa) Tendenz (hPa in 3 Std.)
Mi, 29.03. 17:00 1022 - 1,0
Mi, 29.03. 16:30 1022 - 1,1
Mi, 29.03. 16:00 1023 - 0,8
Mi, 29.03. 15:30 1023 - 0,8
Mi, 29.03. 15:00 1023 - 0,8
Mi, 29.03. 14:30 1023 - 0,9
Ortszeit Schneehöhe (cm)
Mi, 29.03. 14:00 -
Mi, 29.03. 8:00 -
Mi, 29.03. 2:00 -
Di, 28.03. 20:00 -
Ortszeit Schneehöhe (cm)
Mi, 29.03. 17:00 -
Mi, 29.03. 16:30 -
Mi, 29.03. 16:00 -
Mi, 29.03. 15:30 -
Mi, 29.03. 15:00 -
Mi, 29.03. 14:30 -
Link zu dieser Seite / Seite empfehlen

Das Wetter in ...